sensor_id;sensor_type;location;lat;lon;timestamp;P1;durP1;ratioP1;P2;durP2;ratioP2
553;SDS011;59;48.778;9.156;2023-02-28T00:00:50;4.73;;;3.87;;
553;SDS011;59;48.778;9.156;2023-02-28T00:03:16;5.47;;;4.60;;
553;SDS011;59;48.778;9.156;2023-02-28T00:05:41;4.73;;;4.10;;
553;SDS011;59;48.778;9.156;2023-02-28T00:08:07;4.67;;;3.80;;
553;SDS011;59;48.778;9.156;2023-02-28T00:10:33;5.40;;;3.77;;
553;SDS011;59;48.778;9.156;2023-02-28T00:13:01;4.70;;;3.73;;
553;SDS011;59;48.778;9.156;2023-02-28T00:15:29;5.90;;;4.30;;
553;SDS011;59;48.778;9.156;2023-02-28T00:17:55;4.60;;;3.93;;
553;SDS011;59;48.778;9.156;2023-02-28T00:20:20;5.57;;;4.03;;
553;SDS011;59;48.778;9.156;2023-02-28T00:22:47;5.77;;;3.80;;
553;SDS011;59;48.778;9.156;2023-02-28T00:25:17;4.60;;;3.53;;
553;SDS011;59;48.778;9.156;2023-02-28T00:27:46;5.60;;;3.77;;
553;SDS011;59;48.778;9.156;2023-02-28T00:30:13;4.60;;;3.53;;
553;SDS011;59;48.778;9.156;2023-02-28T00:32:40;5.10;;;4.53;;
553;SDS011;59;48.778;9.156;2023-02-28T00:35:07;5.37;;;4.10;;
553;SDS011;59;48.778;9.156;2023-02-28T00:37:33;6.30;;;4.10;;
553;SDS011;59;48.778;9.156;2023-02-28T00:39:59;6.40;;;4.40;;
553;SDS011;59;48.778;9.156;2023-02-28T00:42:25;6.93;;;4.53;;
553;SDS011;59;48.778;9.156;2023-02-28T00:44:51;5.00;;;3.93;;
553;SDS011;59;48.778;9.156;2023-02-28T00:47:17;5.50;;;4.70;;
553;SDS011;59;48.778;9.156;2023-02-28T00:49:42;4.93;;;4.20;;
553;SDS011;59;48.778;9.156;2023-02-28T00:52:08;4.47;;;4.20;;
553;SDS011;59;48.778;9.156;2023-02-28T00:54:34;5.40;;;4.47;;
553;SDS011;59;48.778;9.156;2023-02-28T00:56:59;6.27;;;4.80;;
553;SDS011;59;48.778;9.156;2023-02-28T00:59:25;5.47;;;4.27;;
553;SDS011;59;48.778;9.156;2023-02-28T01:01:51;5.37;;;4.60;;
553;SDS011;59;48.778;9.156;2023-02-28T01:04:17;5.53;;;4.70;;
553;SDS011;59;48.778;9.156;2023-02-28T01:06:42;8.53;;;5.03;;
553;SDS011;59;48.778;9.156;2023-02-28T01:09:08;7.10;;;4.70;;
553;SDS011;59;48.778;9.156;2023-02-28T01:11:34;6.50;;;4.73;;
553;SDS011;59;48.778;9.156;2023-02-28T01:14:00;5.60;;;4.43;;
553;SDS011;59;48.778;9.156;2023-02-28T01:16:26;5.53;;;4.40;;
553;SDS011;59;48.778;9.156;2023-02-28T01:18:52;9.83;;;4.43;;
553;SDS011;59;48.778;9.156;2023-02-28T01:21:19;5.33;;;4.50;;
553;SDS011;59;48.778;9.156;2023-02-28T01:23:46;7.20;;;5.00;;
553;SDS011;59;48.778;9.156;2023-02-28T01:26:13;4.80;;;4.50;;
553;SDS011;59;48.778;9.156;2023-02-28T01:28:41;5.80;;;4.27;;
553;SDS011;59;48.778;9.156;2023-02-28T01:31:06;6.23;;;4.83;;
553;SDS011;59;48.778;9.156;2023-02-28T01:33:33;6.10;;;5.00;;
553;SDS011;59;48.778;9.156;2023-02-28T01:35:59;5.27;;;4.83;;
553;SDS011;59;48.778;9.156;2023-02-28T01:38:34;6.33;;;5.27;;
553;SDS011;59;48.778;9.156;2023-02-28T01:40:59;6.77;;;5.27;;
553;SDS011;59;48.778;9.156;2023-02-28T01:43:39;5.20;;;4.43;;
553;SDS011;59;48.778;9.156;2023-02-28T01:46:14;5.20;;;4.77;;
553;SDS011;59;48.778;9.156;2023-02-28T01:48:42;7.60;;;5.43;;
553;SDS011;59;48.778;9.156;2023-02-28T01:51:13;6.10;;;4.43;;
553;SDS011;59;48.778;9.156;2023-02-28T01:53:43;6.70;;;5.20;;
553;SDS011;59;48.778;9.156;2023-02-28T01:56:11;6.60;;;5.40;;
553;SDS011;59;48.778;9.156;2023-02-28T01:58:45;4.43;;;3.80;;
553;SDS011;59;48.778;9.156;2023-02-28T02:01:14;8.10;;;5.37;;
553;SDS011;59;48.778;9.156;2023-02-28T02:03:49;6.63;;;5.70;;
553;SDS011;59;48.778;9.156;2023-02-28T02:06:25;6.17;;;5.27;;
553;SDS011;59;48.778;9.156;2023-02-28T02:08:53;7.43;;;5.80;;
553;SDS011;59;48.778;9.156;2023-02-28T02:11:20;6.03;;;5.03;;
553;SDS011;59;48.778;9.156;2023-02-28T02:31:13;7.50;;;5.90;;
553;SDS011;59;48.778;9.156;2023-02-28T02:37:06;7.57;;;6.13;;
553;SDS011;59;48.778;9.156;2023-02-28T02:39:44;6.30;;;5.57;;
553;SDS011;59;48.778;9.156;2023-02-28T02:42:39;6.67;;;5.60;;
553;SDS011;59;48.778;9.156;2023-02-28T02:47:39;9.40;;;6.10;;
553;SDS011;59;48.778;9.156;2023-02-28T02:50:07;6.90;;;5.77;;
553;SDS011;59;48.778;9.156;2023-02-28T02:52:43;6.53;;;5.90;;
553;SDS011;59;48.778;9.156;2023-02-28T02:55:11;7.87;;;6.87;;
553;SDS011;59;48.778;9.156;2023-02-28T02:57:40;6.70;;;6.30;;
553;SDS011;59;48.778;9.156;2023-02-28T03:00:10;7.23;;;6.40;;
553;SDS011;59;48.778;9.156;2023-02-28T03:02:37;7.07;;;6.57;;
553;SDS011;59;48.778;9.156;2023-02-28T03:05:08;6.40;;;6.00;;
553;SDS011;59;48.778;9.156;2023-02-28T03:07:45;8.13;;;5.97;;
553;SDS011;59;48.778;9.156;2023-02-28T03:10:31;9.40;;;6.50;;
553;SDS011;59;48.778;9.156;2023-02-28T03:13:08;8.80;;;7.10;;
553;SDS011;59;48.778;9.156;2023-02-28T03:18:43;6.60;;;6.07;;
553;SDS011;59;48.778;9.156;2023-02-28T03:21:14;7.40;;;5.50;;
553;SDS011;59;48.778;9.156;2023-02-28T03:26:29;7.67;;;6.23;;
553;SDS011;59;48.778;9.156;2023-02-28T03:29:05;7.73;;;6.13;;
553;SDS011;59;48.778;9.156;2023-02-28T03:31:48;7.20;;;6.23;;
553;SDS011;59;48.778;9.156;2023-02-28T03:34:26;7.93;;;6.43;;
553;SDS011;59;48.778;9.156;2023-02-28T03:36:56;8.87;;;6.57;;
553;SDS011;59;48.778;9.156;2023-02-28T03:39:34;8.47;;;6.70;;
553;SDS011;59;48.778;9.156;2023-02-28T03:42:22;8.90;;;6.90;;
553;SDS011;59;48.778;9.156;2023-02-28T03:44:52;8.53;;;6.47;;
553;SDS011;59;48.778;9.156;2023-02-28T03:47:21;8.23;;;6.87;;
553;SDS011;59;48.778;9.156;2023-02-28T03:49:54;8.37;;;7.10;;
553;SDS011;59;48.778;9.156;2023-02-28T03:52:22;7.63;;;5.83;;
553;SDS011;59;48.778;9.156;2023-02-28T03:54:52;7.40;;;6.17;;
553;SDS011;59;48.778;9.156;2023-02-28T03:57:26;7.43;;;6.57;;
553;SDS011;59;48.778;9.156;2023-02-28T04:00:12;6.97;;;6.20;;
553;SDS011;59;48.778;9.156;2023-02-28T04:02:41;7.30;;;6.53;;
553;SDS011;59;48.778;9.156;2023-02-28T04:05:07;7.37;;;6.07;;
553;SDS011;59;48.778;9.156;2023-02-28T04:07:33;7.83;;;6.50;;
553;SDS011;59;48.778;9.156;2023-02-28T04:09:59;6.50;;;6.10;;
553;SDS011;59;48.778;9.156;2023-02-28T04:12:25;6.87;;;6.20;;
553;SDS011;59;48.778;9.156;2023-02-28T04:14:51;9.67;;;7.40;;
553;SDS011;59;48.778;9.156;2023-02-28T04:17:16;8.90;;;6.80;;
553;SDS011;59;48.778;9.156;2023-02-28T04:19:42;8.00;;;6.50;;
553;SDS011;59;48.778;9.156;2023-02-28T04:22:08;7.60;;;6.97;;
553;SDS011;59;48.778;9.156;2023-02-28T04:24:34;9.30;;;6.83;;
553;SDS011;59;48.778;9.156;2023-02-28T04:27:00;7.93;;;6.67;;
553;SDS011;59;48.778;9.156;2023-02-28T04:29:27;9.10;;;6.70;;
553;SDS011;59;48.778;9.156;2023-02-28T04:31:53;7.60;;;7.00;;
553;SDS011;59;48.778;9.156;2023-02-28T04:34:20;9.00;;;7.20;;
553;SDS011;59;48.778;9.156;2023-02-28T04:36:46;8.77;;;7.37;;
553;SDS011;59;48.778;9.156;2023-02-28T04:39:18;9.67;;;6.93;;
553;SDS011;59;48.778;9.156;2023-02-28T04:41:45;8.23;;;6.70;;
553;SDS011;59;48.778;9.156;2023-02-28T04:44:11;8.07;;;7.50;;
553;SDS011;59;48.778;9.156;2023-02-28T04:46:37;8.97;;;6.97;;
553;SDS011;59;48.778;9.156;2023-02-28T04:49:02;11.00;;;7.10;;
553;SDS011;59;48.778;9.156;2023-02-28T04:51:28;8.63;;;6.43;;
553;SDS011;59;48.778;9.156;2023-02-28T04:53:54;9.00;;;7.20;;
553;SDS011;59;48.778;9.156;2023-02-28T04:56:20;8.60;;;6.27;;
553;SDS011;59;48.778;9.156;2023-02-28T04:58:46;8.27;;;6.90;;
553;SDS011;59;48.778;9.156;2023-02-28T05:01:25;8.10;;;7.10;;
553;SDS011;59;48.778;9.156;2023-02-28T05:03:53;9.37;;;7.47;;
553;SDS011;59;48.778;9.156;2023-02-28T05:06:20;8.40;;;7.20;;
553;SDS011;59;48.778;9.156;2023-02-28T05:08:48;9.73;;;8.20;;
553;SDS011;59;48.778;9.156;2023-02-28T05:11:22;9.67;;;7.93;;
553;SDS011;59;48.778;9.156;2023-02-28T05:13:54;9.17;;;7.50;;
553;SDS011;59;48.778;9.156;2023-02-28T05:16:20;9.57;;;6.97;;
553;SDS011;59;48.778;9.156;2023-02-28T05:18:46;9.53;;;7.70;;
553;SDS011;59;48.778;9.156;2023-02-28T05:21:54;8.57;;;7.40;;
553;SDS011;59;48.778;9.156;2023-02-28T05:24:01;9.00;;;7.57;;
553;SDS011;59;48.778;9.156;2023-02-28T05:26:37;9.33;;;7.80;;
553;SDS011;59;48.778;9.156;2023-02-28T05:29:04;9.07;;;7.03;;
553;SDS011;59;48.778;9.156;2023-02-28T05:31:30;10.27;;;7.90;;
553;SDS011;59;48.778;9.156;2023-02-28T05:33:56;12.13;;;8.77;;
553;SDS011;59;48.778;9.156;2023-02-28T05:36:22;9.37;;;8.20;;
553;SDS011;59;48.778;9.156;2023-02-28T05:38:49;9.83;;;9.00;;
553;SDS011;59;48.778;9.156;2023-02-28T05:41:15;10.57;;;8.40;;
553;SDS011;59;48.778;9.156;2023-02-28T05:43:47;9.27;;;7.90;;
553;SDS011;59;48.778;9.156;2023-02-28T05:46:32;9.60;;;7.73;;
553;SDS011;59;48.778;9.156;2023-02-28T05:48:58;9.47;;;8.13;;
553;SDS011;59;48.778;9.156;2023-02-28T05:51:25;10.80;;;8.50;;
553;SDS011;59;48.778;9.156;2023-02-28T05:53:51;11.30;;;8.50;;
553;SDS011;59;48.778;9.156;2023-02-28T05:56:16;9.67;;;8.37;;
553;SDS011;59;48.778;9.156;2023-02-28T05:58:42;10.60;;;8.43;;
553;SDS011;59;48.778;9.156;2023-02-28T06:01:21;9.87;;;8.10;;
553;SDS011;59;48.778;9.156;2023-02-28T06:04:07;11.43;;;9.60;;
553;SDS011;59;48.778;9.156;2023-02-28T06:06:34;10.90;;;8.77;;
553;SDS011;59;48.778;9.156;2023-02-28T06:09:01;11.60;;;9.40;;
553;SDS011;59;48.778;9.156;2023-02-28T06:11:27;11.77;;;8.93;;
553;SDS011;59;48.778;9.156;2023-02-28T06:13:54;12.20;;;10.10;;
553;SDS011;59;48.778;9.156;2023-02-28T06:16:21;11.83;;;9.50;;
553;SDS011;59;48.778;9.156;2023-02-28T06:18:47;11.77;;;9.67;;
553;SDS011;59;48.778;9.156;2023-02-28T06:21:13;12.33;;;9.00;;
553;SDS011;59;48.778;9.156;2023-02-28T06:23:39;12.70;;;9.13;;
553;SDS011;59;48.778;9.156;2023-02-28T06:26:05;10.47;;;9.13;;
553;SDS011;59;48.778;9.156;2023-02-28T06:28:30;18.13;;;12.87;;
553;SDS011;59;48.778;9.156;2023-02-28T06:30:56;16.77;;;12.43;;
553;SDS011;59;48.778;9.156;2023-02-28T06:33:22;11.97;;;9.00;;
553;SDS011;59;48.778;9.156;2023-02-28T06:35:51;13.93;;;9.70;;
553;SDS011;59;48.778;9.156;2023-02-28T06:38:17;11.43;;;8.70;;
553;SDS011;59;48.778;9.156;2023-02-28T06:40:43;12.83;;;8.80;;
553;SDS011;59;48.778;9.156;2023-02-28T06:43:09;12.23;;;9.30;;
553;SDS011;59;48.778;9.156;2023-02-28T06:45:41;10.43;;;9.07;;
553;SDS011;59;48.778;9.156;2023-02-28T06:48:08;12.23;;;9.87;;
553;SDS011;59;48.778;9.156;2023-02-28T06:50:34;12.27;;;9.20;;
553;SDS011;59;48.778;9.156;2023-02-28T06:53:00;11.40;;;8.87;;
553;SDS011;59;48.778;9.156;2023-02-28T06:55:25;12.33;;;9.50;;
553;SDS011;59;48.778;9.156;2023-02-28T06:57:51;15.70;;;9.70;;
553;SDS011;59;48.778;9.156;2023-02-28T07:00:17;11.73;;;9.70;;
553;SDS011;59;48.778;9.156;2023-02-28T07:02:42;12.63;;;9.30;;
553;SDS011;59;48.778;9.156;2023-02-28T07:05:08;11.37;;;9.50;;
553;SDS011;59;48.778;9.156;2023-02-28T07:07:34;12.70;;;10.20;;
553;SDS011;59;48.778;9.156;2023-02-28T07:10:01;12.13;;;9.40;;
553;SDS011;59;48.778;9.156;2023-02-28T07:12:27;12.13;;;10.33;;
553;SDS011;59;48.778;9.156;2023-02-28T07:14:52;12.70;;;9.40;;
553;SDS011;59;48.778;9.156;2023-02-28T07:17:20;13.40;;;9.53;;
553;SDS011;59;48.778;9.156;2023-02-28T07:19:46;12.90;;;10.07;;
553;SDS011;59;48.778;9.156;2023-02-28T07:22:12;11.37;;;9.03;;
553;SDS011;59;48.778;9.156;2023-02-28T07:24:37;12.43;;;9.63;;
553;SDS011;59;48.778;9.156;2023-02-28T07:27:03;11.47;;;9.43;;
553;SDS011;59;48.778;9.156;2023-02-28T07:29:29;13.20;;;9.43;;
553;SDS011;59;48.778;9.156;2023-02-28T07:31:55;12.90;;;9.93;;
553;SDS011;59;48.778;9.156;2023-02-28T07:34:21;12.43;;;9.67;;
553;SDS011;59;48.778;9.156;2023-02-28T07:36:47;15.03;;;10.43;;
553;SDS011;59;48.778;9.156;2023-02-28T07:39:14;12.90;;;10.10;;
553;SDS011;59;48.778;9.156;2023-02-28T07:41:39;19.83;;;12.53;;
553;SDS011;59;48.778;9.156;2023-02-28T07:44:09;24.13;;;15.83;;
553;SDS011;59;48.778;9.156;2023-02-28T07:46:35;15.70;;;12.03;;
553;SDS011;59;48.778;9.156;2023-02-28T07:49:01;12.97;;;10.10;;
553;SDS011;59;48.778;9.156;2023-02-28T07:51:28;13.80;;;9.93;;
553;SDS011;59;48.778;9.156;2023-02-28T07:53:54;14.73;;;10.23;;
553;SDS011;59;48.778;9.156;2023-02-28T07:56:20;14.93;;;11.30;;
553;SDS011;59;48.778;9.156;2023-02-28T07:58:46;14.83;;;11.10;;
553;SDS011;59;48.778;9.156;2023-02-28T08:01:12;15.97;;;11.23;;
553;SDS011;59;48.778;9.156;2023-02-28T08:03:38;13.37;;;11.07;;
553;SDS011;59;48.778;9.156;2023-02-28T08:06:05;13.60;;;9.63;;
553;SDS011;59;48.778;9.156;2023-02-28T08:08:32;13.90;;;11.03;;
553;SDS011;59;48.778;9.156;2023-02-28T08:10:58;14.50;;;11.10;;
553;SDS011;59;48.778;9.156;2023-02-28T08:13:25;15.20;;;11.10;;
553;SDS011;59;48.778;9.156;2023-02-28T08:15:52;14.77;;;11.80;;
553;SDS011;59;48.778;9.156;2023-02-28T08:18:19;15.47;;;10.93;;
553;SDS011;59;48.778;9.156;2023-02-28T08:20:44;15.90;;;12.67;;
553;SDS011;59;48.778;9.156;2023-02-28T08:23:10;14.47;;;11.53;;
553;SDS011;59;48.778;9.156;2023-02-28T08:25:36;13.20;;;11.40;;
553;SDS011;59;48.778;9.156;2023-02-28T08:28:01;16.60;;;12.70;;
553;SDS011;59;48.778;9.156;2023-02-28T08:30:27;16.13;;;11.73;;
553;SDS011;59;48.778;9.156;2023-02-28T08:32:53;14.17;;;11.40;;
553;SDS011;59;48.778;9.156;2023-02-28T08:35:19;16.23;;;12.00;;
553;SDS011;59;48.778;9.156;2023-02-28T08:37:46;17.03;;;12.60;;
553;SDS011;59;48.778;9.156;2023-02-28T08:40:13;15.50;;;11.37;;
553;SDS011;59;48.778;9.156;2023-02-28T08:42:43;14.80;;;12.23;;
553;SDS011;59;48.778;9.156;2023-02-28T08:45:09;12.57;;;10.93;;
553;SDS011;59;48.778;9.156;2023-02-28T08:47:36;17.93;;;12.27;;
553;SDS011;59;48.778;9.156;2023-02-28T08:50:02;14.57;;;11.27;;
553;SDS011;59;48.778;9.156;2023-02-28T08:52:28;15.30;;;12.07;;
553;SDS011;59;48.778;9.156;2023-02-28T08:54:54;18.27;;;11.77;;
553;SDS011;59;48.778;9.156;2023-02-28T08:57:20;17.10;;;13.43;;
553;SDS011;59;48.778;9.156;2023-02-28T08:59:45;15.83;;;11.80;;
553;SDS011;59;48.778;9.156;2023-02-28T09:02:14;15.20;;;11.87;;
553;SDS011;59;48.778;9.156;2023-02-28T09:04:40;14.90;;;10.70;;
553;SDS011;59;48.778;9.156;2023-02-28T09:07:06;17.37;;;11.70;;
553;SDS011;59;48.778;9.156;2023-02-28T09:09:32;15.10;;;11.00;;
553;SDS011;59;48.778;9.156;2023-02-28T09:11:58;13.77;;;11.00;;
553;SDS011;59;48.778;9.156;2023-02-28T09:14:24;15.63;;;12.60;;
553;SDS011;59;48.778;9.156;2023-02-28T09:16:49;16.00;;;11.50;;
553;SDS011;59;48.778;9.156;2023-02-28T09:19:15;24.20;;;18.03;;
553;SDS011;59;48.778;9.156;2023-02-28T09:21:41;26.67;;;18.73;;
553;SDS011;59;48.778;9.156;2023-02-28T09:24:06;21.23;;;14.90;;
553;SDS011;59;48.778;9.156;2023-02-28T09:26:32;19.43;;;13.00;;
553;SDS011;59;48.778;9.156;2023-02-28T09:28:59;16.40;;;12.67;;
553;SDS011;59;48.778;9.156;2023-02-28T09:31:25;15.17;;;12.30;;
553;SDS011;59;48.778;9.156;2023-02-28T09:33:53;15.30;;;12.47;;
553;SDS011;59;48.778;9.156;2023-02-28T09:36:21;14.90;;;11.27;;
553;SDS011;59;48.778;9.156;2023-02-28T09:38:48;17.10;;;12.57;;
553;SDS011;59;48.778;9.156;2023-02-28T09:43:46;18.03;;;12.63;;
553;SDS011;59;48.778;9.156;2023-02-28T09:46:21;16.43;;;12.30;;
553;SDS011;59;48.778;9.156;2023-02-28T09:49:06;16.47;;;12.90;;
553;SDS011;59;48.778;9.156;2023-02-28T09:54:13;15.00;;;12.17;;
553;SDS011;59;48.778;9.156;2023-02-28T09:56:44;15.90;;;11.47;;
553;SDS011;59;48.778;9.156;2023-02-28T09:59:29;14.67;;;12.30;;
553;SDS011;59;48.778;9.156;2023-02-28T10:05:16;15.03;;;11.93;;
553;SDS011;59;48.778;9.156;2023-02-28T10:07:53;15.50;;;12.57;;
553;SDS011;59;48.778;9.156;2023-02-28T10:10:44;17.90;;;13.20;;
553;SDS011;59;48.778;9.156;2023-02-28T10:15:56;16.23;;;12.50;;
553;SDS011;59;48.778;9.156;2023-02-28T10:18:25;15.47;;;12.70;;
553;SDS011;59;48.778;9.156;2023-02-28T10:20:54;14.53;;;11.83;;
553;SDS011;59;48.778;9.156;2023-02-28T10:26:14;16.67;;;12.60;;
553;SDS011;59;48.778;9.156;2023-02-28T10:28:42;17.57;;;12.90;;
553;SDS011;59;48.778;9.156;2023-02-28T10:31:11;18.50;;;12.40;;
553;SDS011;59;48.778;9.156;2023-02-28T10:33:42;18.33;;;13.43;;
553;SDS011;59;48.778;9.156;2023-02-28T10:36:11;19.47;;;15.13;;
553;SDS011;59;48.778;9.156;2023-02-28T10:38:40;27.50;;;20.00;;
553;SDS011;59;48.778;9.156;2023-02-28T10:41:48;16.20;;;13.03;;
553;SDS011;59;48.778;9.156;2023-02-28T10:44:41;16.63;;;12.57;;
553;SDS011;59;48.778;9.156;2023-02-28T10:46:48;15.80;;;12.33;;
553;SDS011;59;48.778;9.156;2023-02-28T10:49:24;15.63;;;12.30;;
553;SDS011;59;48.778;9.156;2023-02-28T10:51:52;14.37;;;11.07;;
553;SDS011;59;48.778;9.156;2023-02-28T10:54:23;15.40;;;11.40;;
553;SDS011;59;48.778;9.156;2023-02-28T11:00:07;15.57;;;11.23;;
553;SDS011;59;48.778;9.156;2023-02-28T11:02:45;20.50;;;12.70;;
553;SDS011;59;48.778;9.156;2023-02-28T11:05:24;17.00;;;13.70;;
553;SDS011;59;48.778;9.156;2023-02-28T11:07:59;15.07;;;12.00;;
553;SDS011;59;48.778;9.156;2023-02-28T11:10:30;15.10;;;11.27;;
553;SDS011;59;48.778;9.156;2023-02-28T11:13:01;15.10;;;11.10;;
553;SDS011;59;48.778;9.156;2023-02-28T11:15:28;13.97;;;10.93;;
553;SDS011;59;48.778;9.156;2023-02-28T11:17:59;14.63;;;12.03;;
553;SDS011;59;48.778;9.156;2023-02-28T11:20:27;15.57;;;10.63;;
553;SDS011;59;48.778;9.156;2023-02-28T11:22:55;14.87;;;10.80;;
553;SDS011;59;48.778;9.156;2023-02-28T11:25:39;14.93;;;11.50;;
553;SDS011;59;48.778;9.156;2023-02-28T11:28:06;13.80;;;10.10;;
553;SDS011;59;48.778;9.156;2023-02-28T11:38:47;12.87;;;10.60;;
553;SDS011;59;48.778;9.156;2023-02-28T11:58:04;14.30;;;10.83;;
553;SDS011;59;48.778;9.156;2023-02-28T12:03:35;13.80;;;11.13;;
553;SDS011;59;48.778;9.156;2023-02-28T12:19:19;14.80;;;10.90;;
553;SDS011;59;48.778;9.156;2023-02-28T12:22:00;14.50;;;11.20;;
553;SDS011;59;48.778;9.156;2023-02-28T12:24:39;14.00;;;11.27;;
553;SDS011;59;48.778;9.156;2023-02-28T12:27:13;15.10;;;11.70;;
553;SDS011;59;48.778;9.156;2023-02-28T12:29:46;14.30;;;10.60;;
553;SDS011;59;48.778;9.156;2023-02-28T12:32:20;17.17;;;11.30;;
553;SDS011;59;48.778;9.156;2023-02-28T12:34:49;14.33;;;10.70;;
553;SDS011;59;48.778;9.156;2023-02-28T12:37:29;14.20;;;10.50;;
553;SDS011;59;48.778;9.156;2023-02-28T12:40:03;27.23;;;19.10;;
553;SDS011;59;48.778;9.156;2023-02-28T12:42:36;19.60;;;13.60;;
553;SDS011;59;48.778;9.156;2023-02-28T12:45:50;14.93;;;11.00;;
553;SDS011;59;48.778;9.156;2023-02-28T12:48:11;15.40;;;12.17;;
553;SDS011;59;48.778;9.156;2023-02-28T12:50:45;15.43;;;10.77;;
553;SDS011;59;48.778;9.156;2023-02-28T12:55:52;17.57;;;12.83;;
553;SDS011;59;48.778;9.156;2023-02-28T13:09:52;17.70;;;11.60;;
553;SDS011;59;48.778;9.156;2023-02-28T13:12:19;16.67;;;11.93;;
553;SDS011;59;48.778;9.156;2023-02-28T13:14:45;12.27;;;10.37;;
553;SDS011;59;48.778;9.156;2023-02-28T13:17:12;15.63;;;11.20;;
553;SDS011;59;48.778;9.156;2023-02-28T13:24:51;12.30;;;10.23;;
553;SDS011;59;48.778;9.156;2023-02-28T13:27:21;14.03;;;10.23;;
553;SDS011;59;48.778;9.156;2023-02-28T13:29:57;15.10;;;10.83;;
553;SDS011;59;48.778;9.156;2023-02-28T13:53:01;19.33;;;12.43;;
553;SDS011;59;48.778;9.156;2023-02-28T14:01:21;15.47;;;11.30;;
553;SDS011;59;48.778;9.156;2023-02-28T14:07:33;15.77;;;10.27;;
553;SDS011;59;48.778;9.156;2023-02-28T14:10:23;12.27;;;9.47;;
553;SDS011;59;48.778;9.156;2023-02-28T14:12:58;17.33;;;11.60;;
553;SDS011;59;48.778;9.156;2023-02-28T14:17:52;12.13;;;9.83;;
553;SDS011;59;48.778;9.156;2023-02-28T14:20:19;12.33;;;9.20;;
553;SDS011;59;48.778;9.156;2023-02-28T14:22:50;15.87;;;10.80;;
553;SDS011;59;48.778;9.156;2023-02-28T14:36:37;17.20;;;11.20;;
553;SDS011;59;48.778;9.156;2023-02-28T14:39:24;15.10;;;10.73;;
553;SDS011;59;48.778;9.156;2023-02-28T14:41:51;13.70;;;10.63;;
553;SDS011;59;48.778;9.156;2023-02-28T14:46:49;15.17;;;11.00;;
553;SDS011;59;48.778;9.156;2023-02-28T14:49:21;13.73;;;10.67;;
553;SDS011;59;48.778;9.156;2023-02-28T14:52:01;15.37;;;10.70;;
553;SDS011;59;48.778;9.156;2023-02-28T14:54:28;18.70;;;11.40;;
553;SDS011;59;48.778;9.156;2023-02-28T14:56:54;12.43;;;10.03;;
553;SDS011;59;48.778;9.156;2023-02-28T15:04:42;13.50;;;10.43;;
553;SDS011;59;48.778;9.156;2023-02-28T15:07:14;13.60;;;10.40;;
553;SDS011;59;48.778;9.156;2023-02-28T15:12:58;14.40;;;10.83;;
553;SDS011;59;48.778;9.156;2023-02-28T15:21:33;15.17;;;10.73;;
553;SDS011;59;48.778;9.156;2023-02-28T15:26:34;16.23;;;11.13;;
553;SDS011;59;48.778;9.156;2023-02-28T15:29:05;15.43;;;11.57;;
553;SDS011;59;48.778;9.156;2023-02-28T15:31:58;14.77;;;11.80;;
553;SDS011;59;48.778;9.156;2023-02-28T15:34:36;14.07;;;10.13;;
553;SDS011;59;48.778;9.156;2023-02-28T15:37:24;13.90;;;9.30;;
553;SDS011;59;48.778;9.156;2023-02-28T15:39:53;13.70;;;9.90;;
553;SDS011;59;48.778;9.156;2023-02-28T15:42:21;14.83;;;10.73;;
553;SDS011;59;48.778;9.156;2023-02-28T15:44:48;17.47;;;12.67;;
553;SDS011;59;48.778;9.156;2023-02-28T15:47:21;15.90;;;11.30;;
553;SDS011;59;48.778;9.156;2023-02-28T15:49:49;15.07;;;10.77;;
553;SDS011;59;48.778;9.156;2023-02-28T15:54:58;16.53;;;11.50;;
553;SDS011;59;48.778;9.156;2023-02-28T15:57:25;14.70;;;11.23;;
553;SDS011;59;48.778;9.156;2023-02-28T15:59:56;16.80;;;12.13;;
553;SDS011;59;48.778;9.156;2023-02-28T16:02:32;13.77;;;10.37;;
553;SDS011;59;48.778;9.156;2023-02-28T16:07:37;15.50;;;10.97;;
553;SDS011;59;48.778;9.156;2023-02-28T16:10:05;15.03;;;11.00;;
553;SDS011;59;48.778;9.156;2023-02-28T16:12:32;15.07;;;11.90;;
553;SDS011;59;48.778;9.156;2023-02-28T16:15:00;14.93;;;11.57;;
553;SDS011;59;48.778;9.156;2023-02-28T16:17:35;16.07;;;11.50;;
553;SDS011;59;48.778;9.156;2023-02-28T16:20:12;15.13;;;10.30;;
553;SDS011;59;48.778;9.156;2023-02-28T16:22:42;15.07;;;11.20;;
553;SDS011;59;48.778;9.156;2023-02-28T16:25:12;18.83;;;13.30;;
553;SDS011;59;48.778;9.156;2023-02-28T16:27:58;20.17;;;12.67;;
553;SDS011;59;48.778;9.156;2023-02-28T16:30:26;14.23;;;11.43;;
553;SDS011;59;48.778;9.156;2023-02-28T16:32:54;17.47;;;11.97;;
553;SDS011;59;48.778;9.156;2023-02-28T16:35:20;14.70;;;11.10;;
553;SDS011;59;48.778;9.156;2023-02-28T16:37:47;15.07;;;11.80;;
553;SDS011;59;48.778;9.156;2023-02-28T16:40:14;15.20;;;11.67;;
553;SDS011;59;48.778;9.156;2023-02-28T16:42:41;14.27;;;10.53;;
553;SDS011;59;48.778;9.156;2023-02-28T16:45:13;15.60;;;11.13;;
553;SDS011;59;48.778;9.156;2023-02-28T16:47:44;12.53;;;10.30;;
553;SDS011;59;48.778;9.156;2023-02-28T16:50:14;17.67;;;13.07;;
553;SDS011;59;48.778;9.156;2023-02-28T16:52:44;17.83;;;12.70;;
553;SDS011;59;48.778;9.156;2023-02-28T16:55:09;16.43;;;12.30;;
553;SDS011;59;48.778;9.156;2023-02-28T16:57:36;29.80;;;20.47;;
553;SDS011;59;48.778;9.156;2023-02-28T17:00:02;20.03;;;15.03;;
553;SDS011;59;48.778;9.156;2023-02-28T17:02:29;18.97;;;13.17;;
553;SDS011;59;48.778;9.156;2023-02-28T17:04:54;15.03;;;11.97;;
553;SDS011;59;48.778;9.156;2023-02-28T17:07:20;16.70;;;11.77;;
553;SDS011;59;48.778;9.156;2023-02-28T17:09:46;14.87;;;11.10;;
553;SDS011;59;48.778;9.156;2023-02-28T17:12:11;15.27;;;11.50;;
553;SDS011;59;48.778;9.156;2023-02-28T17:14:37;17.13;;;12.27;;
553;SDS011;59;48.778;9.156;2023-02-28T17:17:06;15.57;;;10.50;;
553;SDS011;59;48.778;9.156;2023-02-28T17:19:32;16.90;;;11.70;;
553;SDS011;59;48.778;9.156;2023-02-28T17:21:59;18.73;;;12.73;;
553;SDS011;59;48.778;9.156;2023-02-28T17:24:25;16.10;;;12.37;;
553;SDS011;59;48.778;9.156;2023-02-28T17:26:51;15.30;;;11.73;;
553;SDS011;59;48.778;9.156;2023-02-28T17:29:20;16.50;;;11.20;;
553;SDS011;59;48.778;9.156;2023-02-28T17:31:46;14.93;;;11.00;;
553;SDS011;59;48.778;9.156;2023-02-28T17:34:13;15.50;;;11.43;;
553;SDS011;59;48.778;9.156;2023-02-28T17:36:46;16.17;;;11.70;;
553;SDS011;59;48.778;9.156;2023-02-28T17:39:13;16.33;;;10.63;;
553;SDS011;59;48.778;9.156;2023-02-28T17:41:40;43.10;;;26.83;;
553;SDS011;59;48.778;9.156;2023-02-28T17:44:07;22.83;;;14.80;;
553;SDS011;59;48.778;9.156;2023-02-28T17:46:33;19.03;;;13.73;;
553;SDS011;59;48.778;9.156;2023-02-28T17:48:59;17.53;;;13.63;;
553;SDS011;59;48.778;9.156;2023-02-28T17:51:25;21.33;;;14.23;;
553;SDS011;59;48.778;9.156;2023-02-28T17:53:51;17.33;;;12.97;;
553;SDS011;59;48.778;9.156;2023-02-28T17:56:21;20.07;;;13.10;;
553;SDS011;59;48.778;9.156;2023-02-28T17:58:48;20.97;;;14.00;;
553;SDS011;59;48.778;9.156;2023-02-28T18:01:14;19.37;;;14.30;;
553;SDS011;59;48.778;9.156;2023-02-28T18:03:40;21.17;;;14.60;;
553;SDS011;59;48.778;9.156;2023-02-28T18:06:06;19.07;;;14.10;;
553;SDS011;59;48.778;9.156;2023-02-28T18:08:32;20.20;;;13.80;;
553;SDS011;59;48.778;9.156;2023-02-28T18:10:59;19.87;;;14.30;;
553;SDS011;59;48.778;9.156;2023-02-28T18:13:25;19.83;;;13.50;;
553;SDS011;59;48.778;9.156;2023-02-28T18:15:52;24.13;;;15.03;;
553;SDS011;59;48.778;9.156;2023-02-28T18:18:18;18.77;;;13.77;;
553;SDS011;59;48.778;9.156;2023-02-28T18:20:45;20.00;;;14.90;;
553;SDS011;59;48.778;9.156;2023-02-28T18:23:12;18.40;;;13.90;;
553;SDS011;59;48.778;9.156;2023-02-28T18:25:39;22.50;;;14.40;;
553;SDS011;59;48.778;9.156;2023-02-28T18:28:05;21.00;;;15.40;;
553;SDS011;59;48.778;9.156;2023-02-28T18:30:32;19.60;;;14.70;;
553;SDS011;59;48.778;9.156;2023-02-28T18:33:01;22.50;;;14.50;;
553;SDS011;59;48.778;9.156;2023-02-28T18:35:27;33.30;;;20.70;;
553;SDS011;59;48.778;9.156;2023-02-28T18:38:01;29.10;;;20.20;;
553;SDS011;59;48.778;9.156;2023-02-28T18:40:27;24.80;;;16.90;;
553;SDS011;59;48.778;9.156;2023-02-28T18:42:52;24.17;;;16.30;;
553;SDS011;59;48.778;9.156;2023-02-28T18:45:18;26.43;;;15.77;;
553;SDS011;59;48.778;9.156;2023-02-28T18:47:44;21.83;;;15.73;;
553;SDS011;59;48.778;9.156;2023-02-28T18:50:10;24.93;;;15.73;;